createdAt,value
2023-03-06T00:00:25.352Z,5.40
2023-03-06T00:02:52.333Z,5.36
2023-03-06T00:05:19.124Z,5.36
2023-03-06T00:07:45.483Z,5.35
2023-03-06T00:10:15.818Z,5.34
2023-03-06T00:12:42.188Z,5.30
2023-03-06T00:15:09.259Z,5.30
2023-03-06T00:17:35.789Z,5.31
2023-03-06T00:20:02.145Z,5.30
2023-03-06T00:22:28.517Z,5.27
2023-03-06T00:24:54.860Z,5.24
2023-03-06T00:27:21.392Z,5.23
2023-03-06T00:29:50.498Z,5.21
2023-03-06T00:32:17.165Z,5.23
2023-03-06T00:34:43.490Z,5.23
2023-03-06T00:37:09.843Z,5.22
2023-03-06T00:39:36.930Z,5.22
2023-03-06T00:42:03.269Z,5.22
2023-03-06T00:44:29.561Z,5.24
2023-03-06T00:46:55.912Z,5.22
2023-03-06T00:49:22.201Z,5.19
2023-03-06T00:51:48.530Z,5.18
2023-03-06T00:54:14.842Z,5.17
2023-03-06T00:56:41.218Z,5.15
2023-03-06T00:59:07.547Z,5.15
2023-03-06T01:01:33.903Z,5.15
2023-03-06T01:04:00.302Z,5.15
2023-03-06T01:06:26.616Z,5.13
2023-03-06T01:08:53.033Z,5.12
2023-03-06T01:11:19.403Z,5.15
2023-03-06T01:13:45.761Z,5.15
2023-03-06T01:16:13.772Z,5.16
2023-03-06T01:18:40.266Z,5.19
2023-03-06T01:21:06.900Z,5.18
2023-03-06T01:23:33.247Z,5.17
2023-03-06T01:25:59.961Z,5.17
2023-03-06T01:28:26.325Z,5.17
2023-03-06T01:30:53.062Z,5.18
2023-03-06T01:33:19.585Z,5.16
2023-03-06T01:35:46.070Z,5.17
2023-03-06T01:38:12.643Z,5.16
2023-03-06T01:40:39.145Z,5.14
2023-03-06T01:43:24.509Z,5.12
2023-03-06T01:45:50.770Z,5.08
2023-03-06T01:48:18.235Z,5.02
2023-03-06T01:50:44.726Z,4.99
2023-03-06T01:53:11.537Z,4.95
2023-03-06T01:55:37.892Z,4.93
2023-03-06T01:58:06.510Z,4.90
2023-03-06T02:00:33.155Z,4.90
2023-03-06T02:03:22.804Z,4.93
2023-03-06T02:05:49.156Z,4.91
2023-03-06T02:08:17.409Z,4.90
2023-03-06T02:10:50.064Z,4.89
2023-03-06T02:13:16.567Z,4.85
2023-03-06T02:15:42.850Z,4.81
2023-03-06T02:18:09.117Z,4.77
2023-03-06T02:20:45.267Z,4.77
2023-03-06T02:23:20.506Z,4.77
2023-03-06T02:25:50.974Z,4.77
2023-03-06T02:28:18.744Z,4.73
2023-03-06T02:30:46.557Z,4.74
2023-03-06T02:33:13.458Z,4.74
2023-03-06T02:35:40.767Z,4.73
2023-03-06T02:38:13.383Z,4.73
2023-03-06T02:40:41.857Z,4.74
2023-03-06T02:43:08.528Z,4.78
2023-03-06T02:45:39.969Z,4.84
2023-03-06T02:48:06.620Z,4.89
2023-03-06T02:50:33.146Z,4.92
2023-03-06T02:52:59.688Z,4.94
2023-03-06T02:55:25.988Z,4.98
2023-03-06T02:57:52.287Z,5.01
2023-03-06T03:00:19.168Z,5.03
2023-03-06T03:02:45.568Z,5.05
2023-03-06T03:05:11.820Z,5.07
2023-03-06T03:07:38.084Z,5.07
2023-03-06T03:10:04.673Z,5.07
2023-03-06T03:12:31.656Z,5.07
2023-03-06T03:14:57.920Z,5.09
2023-03-06T03:17:24.340Z,5.08
2023-03-06T03:19:50.870Z,5.07
2023-03-06T03:22:17.681Z,5.05
2023-03-06T03:24:44.112Z,5.06
2023-03-06T03:27:10.900Z,5.06
2023-03-06T03:29:37.236Z,5.09
2023-03-06T03:32:03.671Z,5.14
2023-03-06T03:34:30.186Z,5.18
2023-03-06T03:36:56.608Z,5.10
2023-03-06T03:39:22.941Z,5.21
2023-03-06T03:41:55.422Z,5.24
2023-03-06T03:44:21.839Z,5.25
2023-03-06T03:46:48.339Z,5.25
2023-03-06T03:49:15.048Z,5.23
2023-03-06T03:51:41.386Z,5.22
2023-03-06T03:54:08.805Z,5.24
2023-03-06T03:56:35.492Z,5.26
2023-03-06T03:59:04.774Z,5.25
2023-03-06T04:01:31.174Z,5.25
2023-03-06T04:03:57.515Z,5.24
2023-03-06T04:06:23.903Z,5.23
2023-03-06T04:08:50.200Z,5.25
2023-03-06T04:11:16.886Z,5.27
2023-03-06T04:13:43.216Z,5.25
2023-03-06T04:16:09.607Z,5.25
2023-03-06T04:18:35.956Z,5.25
2023-03-06T04:21:02.737Z,5.28
2023-03-06T04:23:29.256Z,5.25
2023-03-06T04:25:55.557Z,5.22
2023-03-06T04:28:21.861Z,5.22
2023-03-06T04:30:48.351Z,5.19
2023-03-06T04:33:14.714Z,5.18
2023-03-06T04:35:41.166Z,5.18
2023-03-06T04:38:07.524Z,5.17
2023-03-06T04:40:34.992Z,5.10
2023-03-06T04:43:02.190Z,5.04
2023-03-06T04:45:29.909Z,5.02
2023-03-06T04:47:56.593Z,5.01
2023-03-06T04:50:24.067Z,5.02
2023-03-06T04:52:50.653Z,5.02
2023-03-06T04:55:17.246Z,5.05
2023-03-06T04:57:44.404Z,5.05
2023-03-06T05:00:16.275Z,5.09
2023-03-06T05:02:46.232Z,5.13
2023-03-06T05:05:13.229Z,5.16
2023-03-06T05:07:39.747Z,5.20
2023-03-06T05:10:06.473Z,5.24
2023-03-06T05:12:35.167Z,5.26
2023-03-06T05:15:01.567Z,5.26
2023-03-06T05:17:27.855Z,5.28
2023-03-06T05:19:54.221Z,5.26
2023-03-06T05:22:20.634Z,5.25
2023-03-06T05:24:47.137Z,5.26
2023-03-06T05:27:15.815Z,5.26
2023-03-06T05:29:43.184Z,5.22
2023-03-06T05:32:09.702Z,5.19
2023-03-06T05:34:36.200Z,5.16
2023-03-06T05:37:02.580Z,5.12
2023-03-06T05:39:29.120Z,5.11
2023-03-06T05:41:55.444Z,5.07
2023-03-06T05:44:23.827Z,5.06
2023-03-06T05:46:50.367Z,5.07
2023-03-06T05:49:16.897Z,5.04
2023-03-06T05:51:43.395Z,5.02
2023-03-06T05:54:10.920Z,5.00
2023-03-06T05:56:37.188Z,4.98
2023-03-06T05:59:03.466Z,4.98
2023-03-06T06:01:30.243Z,4.89
2023-03-06T06:03:56.533Z,4.92
2023-03-06T06:06:22.844Z,4.88
2023-03-06T06:08:49.148Z,4.88
2023-03-06T06:11:15.503Z,4.84
2023-03-06T06:13:41.943Z,4.81
2023-03-06T06:16:12.503Z,4.80
2023-03-06T06:18:41.114Z,4.84
2023-03-06T06:21:08.551Z,4.87
2023-03-06T06:23:34.986Z,4.85
2023-03-06T06:26:02.288Z,4.87
2023-03-06T06:28:29.527Z,4.88
2023-03-06T06:30:56.219Z,4.87
2023-03-06T06:33:22.888Z,4.90
2023-03-06T06:35:49.454Z,4.92
2023-03-06T06:38:15.937Z,4.95
2023-03-06T06:40:42.317Z,4.99
2023-03-06T06:43:08.727Z,5.01
2023-03-06T06:45:35.090Z,4.99
2023-03-06T06:48:01.390Z,5.02
2023-03-06T06:50:27.678Z,5.04
2023-03-06T06:52:54.021Z,5.07
2023-03-06T06:55:20.497Z,5.09
2023-03-06T06:57:46.801Z,5.11
2023-03-06T07:00:14.486Z,5.14
2023-03-06T07:02:41.239Z,5.17
2023-03-06T07:05:07.866Z,5.19
2023-03-06T07:07:35.237Z,5.21
2023-03-06T07:10:01.812Z,5.28
2023-03-06T07:12:28.127Z,5.34
2023-03-06T07:14:54.429Z,5.42
2023-03-06T07:17:20.710Z,5.47
2023-03-06T07:19:48.097Z,5.52
2023-03-06T07:22:14.437Z,5.62
2023-03-06T07:24:40.714Z,5.71
2023-03-06T07:27:07.023Z,5.79
2023-03-06T07:29:34.517Z,5.91
2023-03-06T07:32:00.965Z,6.02
2023-03-06T07:34:27.365Z,6.10
2023-03-06T07:36:53.693Z,6.15
2023-03-06T07:39:20.043Z,6.16
2023-03-06T07:41:46.391Z,6.23
2023-03-06T07:44:12.761Z,6.28
2023-03-06T07:46:39.184Z,6.33
2023-03-06T07:49:05.537Z,6.39
2023-03-06T07:51:31.925Z,6.46
2023-03-06T07:53:58.316Z,6.53
2023-03-06T07:56:24.642Z,6.57
2023-03-06T07:58:51.030Z,6.51
2023-03-06T08:01:19.753Z,6.51
2023-03-06T08:03:46.466Z,6.55
2023-03-06T08:06:12.739Z,6.58
2023-03-06T08:08:40.130Z,6.65
2023-03-06T08:11:07.217Z,6.70
2023-03-06T08:13:34.027Z,6.74
2023-03-06T08:16:00.476Z,6.78
2023-03-06T08:18:27.477Z,6.83
2023-03-06T08:21:02.999Z,6.89
2023-03-06T08:23:29.486Z,6.89
2023-03-06T08:25:56.793Z,6.91
2023-03-06T08:28:23.169Z,6.98
2023-03-06T08:30:49.472Z,7.05
2023-03-06T08:33:15.807Z,7.12
2023-03-06T08:35:42.131Z,7.29
2023-03-06T08:38:10.505Z,7.57
2023-03-06T08:40:36.786Z,8.03
2023-03-06T08:43:03.126Z,8.63
2023-03-06T08:45:29.766Z,9.27
2023-03-06T08:47:56.225Z,9.80
2023-03-06T08:50:22.536Z,10.34
2023-03-06T08:52:48.857Z,10.71
2023-03-06T08:55:15.250Z,10.92
2023-03-06T08:57:41.533Z,11.08
2023-03-06T09:00:09.046Z,11.28
2023-03-06T09:02:37.104Z,11.52
2023-03-06T09:05:07.931Z,11.72
2023-03-06T09:07:34.999Z,11.86
2023-03-06T09:10:01.811Z,11.91
2023-03-06T09:12:30.717Z,12.07
2023-03-06T09:14:57.286Z,12.20
2023-03-06T09:17:23.621Z,12.44
2023-03-06T09:19:50.955Z,12.64
2023-03-06T09:22:17.231Z,13.03
2023-03-06T09:24:43.577Z,13.25
2023-03-06T09:27:09.918Z,13.06
2023-03-06T09:29:36.223Z,13.09
2023-03-06T09:32:02.730Z,13.36
2023-03-06T09:34:29.164Z,13.64
2023-03-06T09:36:57.748Z,14.00
2023-03-06T09:39:24.760Z,14.39
2023-03-06T09:41:51.401Z,14.63
2023-03-06T09:44:31.035Z,14.92
2023-03-06T09:47:15.998Z,15.12
2023-03-06T09:50:00.606Z,15.28
2023-03-06T09:52:31.384Z,15.38
2023-03-06T09:55:09.412Z,15.41
2023-03-06T09:57:37.031Z,15.38
2023-03-06T10:00:15.200Z,15.47
2023-03-06T10:02:46.379Z,15.43
2023-03-06T10:05:21.478Z,15.56
2023-03-06T10:08:00.624Z,15.50
2023-03-06T10:10:28.458Z,15.48
2023-03-06T10:13:02.292Z,15.18
2023-03-06T10:15:37.283Z,14.92
2023-03-06T10:18:05.150Z,14.80
2023-03-06T10:20:36.852Z,14.81
2023-03-06T10:23:21.971Z,14.93
2023-03-06T10:25:51.271Z,15.08
2023-03-06T10:28:19.762Z,15.20
2023-03-06T10:30:58.836Z,15.36
2023-03-06T10:33:28.277Z,15.63
2023-03-06T10:35:56.441Z,15.83
2023-03-06T10:38:26.684Z,15.91
2023-03-06T10:41:16.840Z,16.00
2023-03-06T10:43:44.501Z,16.29
2023-03-06T10:46:26.016Z,16.44
2023-03-06T10:48:57.848Z,16.62
2023-03-06T10:51:24.739Z,16.95
2023-03-06T10:54:01.319Z,17.07
2023-03-06T10:56:28.194Z,17.19
2023-03-06T10:59:06.742Z,16.94
2023-03-06T11:01:33.178Z,16.59
2023-03-06T11:04:19.815Z,16.20
2023-03-06T11:06:46.306Z,15.68
2023-03-06T11:09:16.894Z,15.29
2023-03-06T11:11:43.247Z,14.98
2023-03-06T11:14:19.823Z,14.74
2023-03-06T11:16:53.169Z,14.68
2023-03-06T11:19:25.698Z,14.87
2023-03-06T11:22:02.952Z,15.07
2023-03-06T11:24:37.914Z,15.20
2023-03-06T11:27:15.389Z,15.35
2023-03-06T11:29:46.711Z,15.45
2023-03-06T11:32:16.074Z,15.30
2023-03-06T11:34:58.412Z,15.05
2023-03-06T11:37:36.755Z,14.91
2023-03-06T11:40:13.041Z,14.83
2023-03-06T11:42:58.042Z,14.79
2023-03-06T11:45:37.250Z,14.86
2023-03-06T11:48:18.719Z,14.85
2023-03-06T11:50:46.615Z,14.92
2023-03-06T11:53:15.315Z,14.94
2023-03-06T11:55:41.688Z,14.86
2023-03-06T11:58:26.694Z,14.68
2023-03-06T12:01:11.919Z,14.61
2023-03-06T12:03:47.345Z,14.44
2023-03-06T12:06:28.953Z,14.41
2023-03-06T12:09:01.582Z,14.36
2023-03-06T12:11:37.292Z,14.17
2023-03-06T12:14:13.275Z,13.99
2023-03-06T12:16:48.764Z,13.85
2023-03-06T12:19:24.293Z,13.68
2023-03-06T12:21:53.589Z,13.52
2023-03-06T12:24:38.720Z,13.46
2023-03-06T12:27:14.158Z,13.44
2023-03-06T12:29:55.770Z,13.56
2023-03-06T12:32:22.115Z,13.49
2023-03-06T12:35:00.100Z,13.27
2023-03-06T12:37:29.371Z,13.35
2023-03-06T12:40:09.952Z,13.55
2023-03-06T12:42:56.506Z,13.58
2023-03-06T12:45:36.915Z,13.50
2023-03-06T12:48:13.682Z,13.32
2023-03-06T12:50:44.312Z,13.30
2023-03-06T12:53:16.133Z,13.18
2023-03-06T12:55:45.251Z,13.16
2023-03-06T12:58:32.800Z,13.10
2023-03-06T13:01:04.293Z,13.04
2023-03-06T13:03:30.891Z,13.03
2023-03-06T13:06:06.460Z,12.95
2023-03-06T13:08:52.811Z,12.94
2023-03-06T13:11:29.409Z,12.82
2023-03-06T13:13:56.290Z,12.63
2023-03-06T13:16:33.221Z,12.48
2023-03-06T13:19:02.640Z,12.45
2023-03-06T13:21:41.125Z,12.48
2023-03-06T13:24:18.246Z,12.52
2023-03-06T13:26:44.543Z,12.53
2023-03-06T13:29:29.795Z,12.50
2023-03-06T13:31:57.944Z,12.44
2023-03-06T13:34:37.635Z,12.37
2023-03-06T13:37:28.025Z,12.24
2023-03-06T13:40:01.483Z,12.13
2023-03-06T13:42:47.744Z,12.15
2023-03-06T13:45:19.237Z,12.17
2023-03-06T13:48:14.179Z,12.03
2023-03-06T13:50:42.340Z,11.81
2023-03-06T13:53:27.751Z,11.70
2023-03-06T13:55:57.025Z,11.72
2023-03-06T13:58:42.533Z,11.74
2023-03-06T14:01:21.396Z,11.68
2023-03-06T14:03:53.625Z,11.57
2023-03-06T14:06:35.256Z,11.50
2023-03-06T14:09:06.072Z,11.40
2023-03-06T14:11:33.079Z,11.29
2023-03-06T14:13:59.715Z,11.22
2023-03-06T14:16:29.186Z,11.18
2023-03-06T14:18:59.924Z,11.09
2023-03-06T14:21:30.816Z,11.07
2023-03-06T14:24:01.685Z,11.00
2023-03-06T14:26:31.721Z,10.76
2023-03-06T14:28:59.467Z,10.72
2023-03-06T14:31:28.233Z,10.64
2023-03-06T14:33:56.484Z,10.51
2023-03-06T14:36:24.285Z,10.47
2023-03-06T14:39:02.100Z,10.28
2023-03-06T14:41:35.240Z,10.06
2023-03-06T14:44:07.663Z,9.95
2023-03-06T14:46:34.023Z,9.83
2023-03-06T14:49:00.373Z,9.85
2023-03-06T14:51:26.733Z,9.86
2023-03-06T14:53:54.135Z,9.73
2023-03-06T14:56:22.054Z,9.63
2023-03-06T14:59:03.614Z,9.58
2023-03-06T15:01:34.079Z,9.56
2023-03-06T15:04:01.260Z,9.50
2023-03-06T15:06:31.302Z,9.39
2023-03-06T15:09:00.539Z,9.25
2023-03-06T15:11:26.963Z,9.18
2023-03-06T15:14:03.183Z,9.12
2023-03-06T15:16:30.633Z,9.10
2023-03-06T15:19:04.246Z,9.11
2023-03-06T15:21:37.800Z,9.13
2023-03-06T15:24:24.055Z,9.18
2023-03-06T15:26:54.569Z,9.19
2023-03-06T15:29:22.938Z,9.17
2023-03-06T15:31:49.381Z,9.08
2023-03-06T15:34:18.426Z,8.97
2023-03-06T15:36:47.351Z,8.94
2023-03-06T15:39:32.565Z,8.98
2023-03-06T15:42:24.892Z,8.98
2023-03-06T15:44:53.163Z,8.88
2023-03-06T15:47:20.419Z,8.92
2023-03-06T15:49:49.010Z,8.95
2023-03-06T15:52:15.301Z,8.84
2023-03-06T15:54:44.598Z,8.74
2023-03-06T15:57:19.228Z,8.72
2023-03-06T15:59:45.652Z,8.71
2023-03-06T16:02:14.878Z,8.71
2023-03-06T16:04:41.261Z,8.68
2023-03-06T16:07:07.864Z,8.57
2023-03-06T16:09:34.300Z,8.40
2023-03-06T16:12:00.667Z,8.22
2023-03-06T16:14:27.208Z,8.11
2023-03-06T16:16:55.053Z,8.04
2023-03-06T16:19:27.134Z,7.97
2023-03-06T16:21:54.603Z,7.84
2023-03-06T16:24:20.986Z,7.75
2023-03-06T16:26:49.252Z,7.69
2023-03-06T16:29:16.722Z,7.61
2023-03-06T16:31:43.166Z,7.54
2023-03-06T16:34:09.482Z,7.48
2023-03-06T16:36:35.935Z,7.44
2023-03-06T16:39:02.390Z,7.47
2023-03-06T16:41:28.736Z,7.38
2023-03-06T16:43:55.054Z,7.31
2023-03-06T16:46:23.745Z,7.25
2023-03-06T16:48:50.768Z,7.21
2023-03-06T16:51:18.196Z,7.12
2023-03-06T16:53:44.828Z,7.12
2023-03-06T16:56:15.908Z,7.08
2023-03-06T16:58:42.696Z,7.10
2023-03-06T17:01:09.892Z,7.11
2023-03-06T17:03:36.604Z,7.07
2023-03-06T17:06:03.674Z,7.03
2023-03-06T17:08:30.093Z,6.99
2023-03-06T17:10:56.472Z,7.00
2023-03-06T17:13:22.913Z,6.98
2023-03-06T17:15:56.030Z,7.01
2023-03-06T17:18:23.337Z,6.96
2023-03-06T17:20:51.464Z,6.96
2023-03-06T17:23:18.679Z,6.91
2023-03-06T17:25:45.136Z,6.87
2023-03-06T17:28:11.548Z,6.85
2023-03-06T17:30:37.954Z,6.86
2023-03-06T17:33:04.340Z,6.83
2023-03-06T17:35:30.771Z,6.81
2023-03-06T17:37:57.471Z,6.79
2023-03-06T17:40:23.810Z,6.76
2023-03-06T17:42:51.191Z,6.79
2023-03-06T17:45:17.908Z,6.76
2023-03-06T17:47:44.396Z,6.69
2023-03-06T17:50:11.159Z,6.57
2023-03-06T17:52:38.933Z,6.46
2023-03-06T17:55:06.024Z,6.44
2023-03-06T17:57:32.405Z,6.35
2023-03-06T17:59:59.064Z,6.30
2023-03-06T18:02:25.584Z,6.25
2023-03-06T18:04:52.238Z,6.15
2023-03-06T18:07:18.615Z,6.11
2023-03-06T18:09:44.980Z,6.12
2023-03-06T18:12:11.360Z,6.09
2023-03-06T18:14:37.701Z,6.02
2023-03-06T18:17:04.578Z,5.92
2023-03-06T18:19:30.900Z,5.86
2023-03-06T18:21:59.010Z,5.82
2023-03-06T18:24:25.320Z,5.74
2023-03-06T18:26:51.604Z,5.70
2023-03-06T18:29:17.942Z,5.57
2023-03-06T18:31:44.958Z,5.62
2023-03-06T18:34:12.575Z,5.58
2023-03-06T18:36:39.562Z,5.55
2023-03-06T18:39:08.767Z,5.55
2023-03-06T18:41:35.724Z,5.56
2023-03-06T18:44:02.416Z,5.61
2023-03-06T18:46:33.221Z,5.65
2023-03-06T18:48:59.564Z,5.65
2023-03-06T18:51:26.034Z,5.59
2023-03-06T18:53:52.478Z,5.62
2023-03-06T18:56:20.733Z,5.68
2023-03-06T18:58:47.341Z,5.69
2023-03-06T19:01:14.097Z,5.65
2023-03-06T19:03:40.534Z,5.65
2023-03-06T19:06:10.927Z,5.73
2023-03-06T19:08:38.302Z,5.72
2023-03-06T19:11:06.284Z,5.69
2023-03-06T19:13:32.815Z,5.67
2023-03-06T19:15:59.273Z,5.65
2023-03-06T19:18:26.556Z,5.63
2023-03-06T19:20:53.238Z,5.61
2023-03-06T19:23:21.144Z,5.56
2023-03-06T19:25:57.594Z,5.55
2023-03-06T19:28:24.349Z,5.56
2023-03-06T19:30:50.728Z,5.55
2023-03-06T19:33:17.492Z,5.50
2023-03-06T19:35:44.052Z,5.44
2023-03-06T19:38:10.477Z,5.36
2023-03-06T19:40:37.403Z,5.46
2023-03-06T19:43:04.136Z,5.44
2023-03-06T19:45:30.611Z,5.46
2023-03-06T19:48:00.707Z,5.49
2023-03-06T19:50:29.642Z,5.61
2023-03-06T19:52:56.712Z,5.75
2023-03-06T19:55:24.637Z,5.87
2023-03-06T19:57:52.261Z,5.96
2023-03-06T20:00:19.041Z,5.96
2023-03-06T20:02:45.353Z,5.94
2023-03-06T20:05:11.635Z,5.96
2023-03-06T20:07:38.068Z,5.90
2023-03-06T20:10:04.691Z,5.88
2023-03-06T20:12:34.022Z,5.87
2023-03-06T20:15:00.318Z,5.84
2023-03-06T20:17:26.771Z,5.82
2023-03-06T20:19:53.331Z,5.78
2023-03-06T20:22:19.757Z,5.74
2023-03-06T20:24:46.332Z,5.72
2023-03-06T20:27:12.845Z,5.72
2023-03-06T20:29:43.260Z,5.73
2023-03-06T20:32:09.748Z,5.73
2023-03-06T20:34:38.668Z,5.73
2023-03-06T20:37:05.734Z,5.76
2023-03-06T20:39:32.143Z,5.77
2023-03-06T20:42:00.017Z,5.75
2023-03-06T20:44:27.024Z,5.76
2023-03-06T20:46:53.310Z,5.79
2023-03-06T20:49:19.696Z,5.78
2023-03-06T20:51:46.073Z,5.82
2023-03-06T20:54:14.092Z,5.83
2023-03-06T20:56:41.254Z,5.85
2023-03-06T20:59:11.659Z,5.88
2023-03-06T21:01:40.988Z,5.91
2023-03-06T21:04:08.589Z,5.98
2023-03-06T21:06:35.322Z,6.02
2023-03-06T21:09:02.139Z,5.98
2023-03-06T21:11:28.551Z,6.02
2023-03-06T21:13:55.478Z,6.01
2023-03-06T21:16:22.704Z,6.05
2023-03-06T21:18:49.130Z,6.09
2023-03-06T21:21:19.738Z,6.13
2023-03-06T21:23:46.684Z,6.18
2023-03-06T21:26:14.143Z,6.18
2023-03-06T21:28:40.776Z,6.16
2023-03-06T21:31:08.453Z,6.22
2023-03-06T21:33:35.062Z,6.33
2023-03-06T21:36:01.863Z,6.38
2023-03-06T21:38:28.470Z,6.36
2023-03-06T21:40:55.968Z,6.36
2023-03-06T21:43:22.840Z,6.32
2023-03-06T21:45:52.527Z,6.30
2023-03-06T21:48:19.203Z,6.33
2023-03-06T21:53:28.697Z,6.41
2023-03-06T21:55:54.960Z,6.41
2023-03-06T21:58:21.264Z,6.42
2023-03-06T22:00:47.548Z,6.46
2023-03-06T22:03:13.814Z,6.45
2023-03-06T22:05:40.081Z,6.44
2023-03-06T22:08:06.388Z,6.44
2023-03-06T22:10:32.694Z,6.45
2023-03-06T22:12:59.031Z,6.45
2023-03-06T22:15:25.439Z,6.47
2023-03-06T22:17:51.779Z,6.47
2023-03-06T22:20:18.101Z,6.49
2023-03-06T22:22:44.478Z,6.49
2023-03-06T22:25:12.119Z,6.46
2023-03-06T22:27:38.508Z,6.45
2023-03-06T22:30:05.054Z,6.43
2023-03-06T22:32:31.357Z,6.41
2023-03-06T22:34:57.721Z,6.40
2023-03-06T22:37:24.155Z,6.42
2023-03-06T22:39:50.521Z,6.41
2023-03-06T22:42:16.804Z,6.42
2023-03-06T22:44:43.181Z,6.41
2023-03-06T22:47:09.503Z,6.41
2023-03-06T22:49:37.008Z,6.40
2023-03-06T22:52:03.649Z,6.42
2023-03-06T22:54:30.023Z,6.42
2023-03-06T22:56:56.408Z,6.42
2023-03-06T22:59:22.740Z,6.44
2023-03-06T23:01:49.105Z,6.43
2023-03-06T23:04:15.469Z,6.45
2023-03-06T23:06:41.969Z,6.45
2023-03-06T23:09:16.325Z,6.43
2023-03-06T23:11:42.613Z,6.42
2023-03-06T23:14:12.012Z,6.43
2023-03-06T23:16:38.563Z,6.44
2023-03-06T23:19:05.112Z,6.47
2023-03-06T23:21:31.812Z,6.48
2023-03-06T23:23:58.157Z,6.46
2023-03-06T23:26:25.550Z,6.47
2023-03-06T23:28:52.685Z,6.46
2023-03-06T23:31:22.529Z,6.42
2023-03-06T23:33:49.342Z,6.42
2023-03-06T23:36:16.672Z,6.41
2023-03-06T23:38:43.329Z,6.41
2023-03-06T23:41:16.971Z,6.39
2023-03-06T23:43:43.671Z,6.43
2023-03-06T23:46:10.403Z,6.45
2023-03-06T23:48:38.902Z,6.47
2023-03-06T23:51:06.461Z,6.44
2023-03-06T23:53:32.732Z,6.57
2023-03-06T23:55:59.130Z,6.63
2023-03-06T23:58:25.464Z,6.66
